Havana, Cuba
Current Conditions -  °F | °C
As of 10:55 AM on Tuesday 21 Oct 2014 (Local Time) from MUHA Reporting Station
Broken Clouds Broken Clouds  
Wind Chill: 81°   Ceiling: 10000
Heat Index: 85°   Visibility: 6mi
Dew Point: 73°   Wind: 2mph
Humidity: 79%   Direction: NA
Pressure: 29.97"   Gusts: NA
Location:  23.12°N, 82.39°W
Report Text: MUHA 211455Z VRB02KT 9000 FEW020 BKN100 27/23 Q1015
Loading
Personal Weather Stations






























Interactive Weather Map New forecast layout! Learn more

10-Day Weather Forecast

Advertisements
Track Severe Weather on mobile